Time;durP1;ratioP1;P1;durP2;ratioP2;P2;SDS_P1;SDS_P2;PMS_P1;PMS_P2;Temp;Humidity;BMP_temperature;BMP_pressure;BME280_temperature;BME280_humidity;BME280_pressure;Samples;Min_cycle;Max_cycle;Signal;HPM_P1;HPM_P2
2022/10/18 00:00:03;;;;;;;;;;;20.50;71.50;;;;;;5061106;28;903;-70
2022/10/18 00:02:28;;;;;;;;;;;20.50;71.50;;;;;;5060022;28;1906;-70
2022/10/18 00:04:54;;;;;;;;;;;20.50;71.50;;;;;;5062435;28;1450;-70
2022/10/18 00:07:19;;;;;;;;;;;20.50;71.50;;;;;;5060181;28;891;-70
2022/10/18 00:09:45;;;;;;;;;;;20.50;71.50;;;;;;5061598;28;966;-70
2022/10/18 00:12:10;;;;;;;;;;;20.50;71.50;;;;;;5060052;28;912;-70
2022/10/18 00:14:35;;;;;;;;;;;20.50;71.50;;;;;;5061237;28;883;-70
2022/10/18 00:17:01;;;;;;;;;;;20.50;71.50;;;;;;5060505;28;1262;-70
2022/10/18 00:19:26;;;;;;;;;;;20.50;71.50;;;;;;5059694;28;1184;-70
2022/10/18 00:21:52;;;;;;;;;;;20.50;71.50;;;;;;5060798;28;859;-70
2022/10/18 00:24:17;;;;;;;;;;;20.50;71.50;;;;;;5060024;28;1969;-70
2022/10/18 00:26:43;;;;;;;;;;;20.50;71.50;;;;;;5059831;28;1279;-70
2022/10/18 00:29:12;;;;;;;;;;;20.50;71.60;;;;;;5062186;28;796;-70
2022/10/18 00:31:38;;;;;;;;;;;20.50;71.50;;;;;;5063023;28;1394;-70
2022/10/18 00:34:04;;;;;;;;;;;20.50;71.50;;;;;;5062748;28;938;-70
2022/10/18 00:36:30;;;;;;;;;;;20.50;71.50;;;;;;5057344;28;1824;-69
2022/10/18 00:38:55;;;;;;;;;;;20.50;71.60;;;;;;5062157;28;818;-70
2022/10/18 00:41:22;;;;;;;;;;;20.50;71.50;;;;;;5058849;28;876;-70
2022/10/18 00:43:55;;;;;;;;;;;20.50;71.50;;;;;;5058016;28;1902;-70
2022/10/18 00:46:21;;;;;;;;;;;20.50;71.60;;;;;;5058934;28;1475;-69
2022/10/18 00:48:46;;;;;;;;;;;20.50;71.50;;;;;;5062279;28;1066;-69
2022/10/18 00:51:12;;;;;;;;;;;20.50;71.60;;;;;;5061816;28;890;-68
2022/10/18 00:53:37;;;;;;;;;;;20.50;71.60;;;;;;5064174;28;934;-68
2022/10/18 00:56:03;;;;;;;;;;;20.50;71.60;;;;;;5062048;28;1351;-68
2022/10/18 00:58:28;;;;;;;;;;;20.40;71.50;;;;;;5062246;28;863;-68
2022/10/18 01:00:54;;;;;;;;;;;20.50;71.60;;;;;;5062190;28;956;-68
2022/10/18 01:03:19;;;;;;;;;;;20.50;71.50;;;;;;5058002;28;1898;-69
2022/10/18 01:05:45;;;;;;;;;;;20.50;71.50;;;;;;5056628;28;1360;-69
2022/10/18 01:08:16;;;;;;;;;;;20.50;71.60;;;;;;5060154;28;1448;-69
2022/10/18 01:10:50;;;;;;;;;;;20.50;71.60;;;;;;5061768;28;885;-69
2022/10/18 01:13:34;;;;;;;;;;;20.50;71.60;;;;;;5057651;28;1081;-70
2022/10/18 01:16:06;;;;;;;;;;;20.50;71.60;;;;;;5058047;28;1284;-70
2022/10/18 01:18:40;;;;;;;;;;;20.50;71.60;;;;;;5059080;28;1317;-71
2022/10/18 01:21:14;;;;;;;;;;;20.50;71.60;;;;;;5059527;28;901;-70
2022/10/18 01:23:48;;;;;;;;;;;20.50;71.60;;;;;;5056897;28;1958;-70
2022/10/18 01:26:16;;;;;;;;;;;20.50;71.60;;;;;;5058098;28;1352;-70
2022/10/18 01:29:00;;;;;;;;;;;20.50;71.60;;;;;;5060621;28;982;-70
2022/10/18 01:31:30;;;;;;;;;;;20.50;71.60;;;;;;5060933;28;1399;-70
2022/10/18 01:33:56;;;;;;;;;;;20.50;71.60;;;;;;5057408;28;994;-70
2022/10/18 01:36:41;;;;;;;;;;;20.50;71.60;;;;;;5057824;28;2026;-70
2022/10/18 01:39:07;;;;;;;;;;;20.50;71.60;;;;;;5058678;28;993;-70
2022/10/18 01:41:33;;;;;;;;;;;20.50;72.30;;;;;;5058824;28;1001;-69
2022/10/18 01:43:59;;;;;;;;;;;20.50;71.60;;;;;;5057808;28;1963;-70
2022/10/18 01:46:25;;;;;;;;;;;20.50;71.60;;;;;;5061664;28;1263;-70
2022/10/18 01:48:50;;;;;;;;;;;20.40;71.50;;;;;;5059590;28;800;-70
2022/10/18 01:51:25;;;;;;;;;;;20.50;71.60;;;;;;5057695;28;1017;-70
2022/10/18 01:53:51;;;;;;;;;;;20.50;71.60;;;;;;5063478;28;1010;-70
2022/10/18 01:56:24;;;;;;;;;;;20.40;71.60;;;;;;5057541;28;1363;-70
2022/10/18 01:59:04;;;;;;;;;;;20.50;71.60;;;;;;5049645;28;1173;-70
2022/10/18 02:01:48;;;;;;;;;;;20.50;71.60;;;;;;5058851;28;1092;-70
2022/10/18 02:04:19;;;;;;;;;;;20.40;71.60;;;;;;5059751;28;1890;-69
2022/10/18 02:06:44;;;;;;;;;;;20.50;71.60;;;;;;5062878;28;1302;-70
2022/10/18 02:09:11;;;;;;;;;;;20.40;71.60;;;;;;5058963;28;1061;-70
2022/10/18 02:11:37;;;;;;;;;;;20.50;71.60;;;;;;5055937;28;1348;-70
2022/10/18 02:14:05;;;;;;;;;;;20.50;71.60;;;;;;5057391;28;1370;-70
2022/10/18 02:16:34;;;;;;;;;;;20.50;71.60;;;;;;5061953;28;1306;-69
2022/10/18 02:19:01;;;;;;;;;;;20.50;71.60;;;;;;5059644;28;1294;-73
2022/10/18 02:21:26;;;;;;;;;;;20.40;71.60;;;;;;5061270;28;1042;-71
2022/10/18 02:23:52;;;;;;;;;;;20.50;71.70;;;;;;5058559;28;1957;-71
2022/10/18 02:26:17;;;;;;;;;;;20.50;72.40;;;;;;5056475;28;2108;-70
2022/10/18 02:28:43;;;;;;;;;;;20.40;71.60;;;;;;5061162;28;1333;-69
2022/10/18 02:31:11;;;;;;;;;;;20.50;71.70;;;;;;5062122;28;1574;-69
2022/10/18 02:33:39;;;;;;;;;;;20.50;71.60;;;;;;5061987;28;3395;-69
2022/10/18 02:36:07;;;;;;;;;;;20.40;71.60;;;;;;5062200;28;1532;-69
2022/10/18 02:38:33;;;;;;;;;;;20.50;71.60;;;;;;5059347;28;1687;-69
2022/10/18 02:40:58;;;;;;;;;;;20.50;71.60;;;;;;5065544;28;829;-71
2022/10/18 02:43:24;;;;;;;;;;;20.40;71.60;;;;;;5060976;28;1952;-72
2022/10/18 02:45:49;;;;;;;;;;;20.50;71.60;;;;;;5067066;28;1402;-70
2022/10/18 02:48:15;;;;;;;;;;;20.50;71.60;;;;;;5059534;28;1355;-70
2022/10/18 02:50:40;;;;;;;;;;;20.40;71.60;;;;;;5064072;28;1956;-69
2022/10/18 02:53:05;;;;;;;;;;;20.50;71.70;;;;;;5068703;28;1086;-69
2022/10/18 02:55:31;;;;;;;;;;;20.50;71.60;;;;;;5059901;28;1248;-69
2022/10/18 02:57:56;;;;;;;;;;;20.40;71.60;;;;;;5058500;28;1013;-69
2022/10/18 03:00:22;;;;;;;;;;;20.50;71.70;;;;;;5056167;28;1014;-70
2022/10/18 03:02:48;;;;;;;;;;;20.40;71.70;;;;;;5057522;28;1894;-70
2022/10/18 03:05:13;;;;;;;;;;;20.50;71.70;;;;;;5059222;28;1264;-69
2022/10/18 03:07:38;;;;;;;;;;;20.50;71.70;;;;;;5058624;28;840;-70
2022/10/18 03:10:04;;;;;;;;;;;20.50;71.70;;;;;;5056981;28;1298;-70
2022/10/18 03:12:29;;;;;;;;;;;20.40;71.70;;;;;;5055084;28;839;-70
2022/10/18 03:14:55;;;;;;;;;;;20.40;71.60;;;;;;5052417;28;1326;-70
2022/10/18 03:17:20;;;;;;;;;;;20.40;71.60;;;;;;5052785;28;1361;-70
2022/10/18 03:19:46;;;;;;;;;;;20.50;71.70;;;;;;5058333;28;903;-69
2022/10/18 03:22:11;;;;;;;;;;;20.40;71.60;;;;;;5060013;28;1065;-69
2022/10/18 03:24:37;;;;;;;;;;;20.40;71.60;;;;;;5059524;28;1886;-70
2022/10/18 03:27:02;;;;;;;;;;;20.40;71.70;;;;;;5057834;28;1208;-70
2022/10/18 03:29:28;;;;;;;;;;;20.40;71.70;;;;;;5055154;28;886;-70
2022/10/18 03:31:53;;;;;;;;;;;20.50;71.70;;;;;;5058752;28;1368;-70
2022/10/18 03:34:18;;;;;;;;;;;20.50;71.70;;;;;;5056159;28;843;-70
2022/10/18 03:36:44;;;;;;;;;;;20.40;71.70;;;;;;5057219;28;1268;-70
2022/10/18 03:39:10;;;;;;;;;;;20.50;71.70;;;;;;5058123;28;886;-70
2022/10/18 03:41:35;;;;;;;;;;;20.50;71.70;;;;;;5058115;28;1076;-69
2022/10/18 03:44:00;;;;;;;;;;;20.40;71.70;;;;;;5056810;28;1898;-70
2022/10/18 03:46:26;;;;;;;;;;;20.50;71.70;;;;;;5054776;28;1261;-70
2022/10/18 03:48:51;;;;;;;;;;;20.40;71.70;;;;;;5057638;28;1403;-70
2022/10/18 03:51:17;;;;;;;;;;;20.40;71.70;;;;;;5059403;28;840;-69
2022/10/18 03:53:42;;;;;;;;;;;20.40;71.70;;;;;;5054401;28;2115;-70
2022/10/18 03:56:07;;;;;;;;;;;20.40;71.70;;;;;;5057825;28;1981;-70
2022/10/18 03:58:33;;;;;;;;;;;20.40;71.70;;;;;;5051342;28;4035;-71
2022/10/18 04:00:58;;;;;;;;;;;20.40;71.70;;;;;;5057289;28;1246;-68
2022/10/18 04:03:24;;;;;;;;;;;20.50;71.70;;;;;;5060150;28;1968;-68
2022/10/18 04:05:49;;;;;;;;;;;20.40;71.70;;;;;;5057681;28;1244;-68
2022/10/18 04:08:15;;;;;;;;;;;20.50;71.70;;;;;;5052100;28;857;-69
2022/10/18 04:10:40;;;;;;;;;;;20.40;71.70;;;;;;5046416;28;1739;-70
2022/10/18 04:13:06;;;;;;;;;;;20.40;71.70;;;;;;5064160;28;1221;-69
2022/10/18 04:15:31;;;;;;;;;;;20.50;71.80;;;;;;5052864;28;1367;-69
2022/10/18 04:17:57;;;;;;;;;;;20.50;71.70;;;;;;5055572;28;1565;-68
2022/10/18 04:20:23;;;;;;;;;;;20.40;71.70;;;;;;5053860;28;1626;-69
2022/10/18 04:22:48;;;;;;;;;;;20.50;71.80;;;;;;5058580;28;1949;-69
2022/10/18 04:25:14;;;;;;;;;;;20.50;71.70;;;;;;5056251;28;1255;-69
2022/10/18 04:27:39;;;;;;;;;;;20.40;71.70;;;;;;5057333;28;1034;-69
2022/10/18 04:30:05;;;;;;;;;;;20.40;71.70;;;;;;5058825;28;1073;-69
2022/10/18 04:32:30;;;;;;;;;;;20.40;71.70;;;;;;5061155;28;1396;-68
2022/10/18 04:34:56;;;;;;;;;;;20.50;71.80;;;;;;5058694;28;1302;-69
2022/10/18 04:37:21;;;;;;;;;;;20.40;71.70;;;;;;5055571;28;879;-70
2022/10/18 04:39:47;;;;;;;;;;;20.40;71.70;;;;;;5056963;28;810;-68
2022/10/18 04:42:12;;;;;;;;;;;20.40;71.70;;;;;;5056281;28;893;-70
2022/10/18 04:44:38;;;;;;;;;;;20.40;71.70;;;;;;5059831;28;1902;-69
2022/10/18 04:47:03;;;;;;;;;;;20.40;71.70;;;;;;5057315;28;1627;-68
2022/10/18 04:49:29;;;;;;;;;;;20.40;71.70;;;;;;5060842;28;996;-69
2022/10/18 04:51:54;;;;;;;;;;;20.40;71.80;;;;;;5060401;28;867;-70
2022/10/18 04:54:19;;;;;;;;;;;20.40;71.70;;;;;;5059382;28;1271;-70
2022/10/18 04:56:45;;;;;;;;;;;20.40;71.70;;;;;;5059017;28;1259;-70
2022/10/18 04:59:10;;;;;;;;;;;20.40;71.70;;;;;;5054993;28;927;-70
2022/10/18 05:01:36;;;;;;;;;;;20.40;71.80;;;;;;5056896;28;1272;-69
2022/10/18 05:04:01;;;;;;;;;;;20.40;71.70;;;;;;5058530;28;1957;-69
2022/10/18 05:06:27;;;;;;;;;;;20.40;71.80;;;;;;5058810;28;1255;-69
2022/10/18 05:08:52;;;;;;;;;;;20.40;71.70;;;;;;5052964;28;1018;-69
2022/10/18 05:11:17;;;;;;;;;;;20.40;71.70;;;;;;5053292;28;2186;-71
2022/10/18 05:13:43;;;;;;;;;;;20.40;71.80;;;;;;5054454;28;1064;-71
2022/10/18 05:16:09;;;;;;;;;;;20.40;71.80;;;;;;5057659;28;1342;-71
2022/10/18 05:18:35;;;;;;;;;;;20.40;71.80;;;;;;5062987;28;875;-70
2022/10/18 05:21:00;;;;;;;;;;;20.40;71.80;;;;;;5060821;28;890;-71
2022/10/18 05:23:25;;;;;;;;;;;20.40;71.80;;;;;;5060227;28;1963;-71
2022/10/18 05:25:52;;;;;;;;;;;20.40;71.70;;;;;;5057300;28;1367;-71
2022/10/18 05:28:17;;;;;;;;;;;20.40;71.80;;;;;;5059575;28;829;-70
2022/10/18 05:30:43;;;;;;;;;;;20.40;71.80;;;;;;5057486;28;852;-70
2022/10/18 05:33:08;;;;;;;;;;;20.40;71.80;;;;;;5060770;28;1463;-70
2022/10/18 05:35:34;;;;;;;;;;;20.40;71.80;;;;;;5058991;28;1271;-69
2022/10/18 05:38:03;;;;;;;;;;;20.40;71.80;;;;;;5058754;28;891;-70
2022/10/18 05:40:28;;;;;;;;;;;20.40;71.90;;;;;;5058988;28;851;-71
2022/10/18 05:42:53;;;;;;;;;;;20.40;71.70;;;;;;5060459;28;1926;-70
2022/10/18 05:45:19;;;;;;;;;;;20.50;71.80;;;;;;5056758;28;1482;-70
2022/10/18 05:47:44;;;;;;;;;;;20.50;71.80;;;;;;5061967;28;1021;-70
2022/10/18 05:50:10;;;;;;;;;;;20.50;71.80;;;;;;5057904;28;896;-70
2022/10/18 05:52:35;;;;;;;;;;;20.50;71.80;;;;;;5060912;28;800;-70
2022/10/18 05:55:01;;;;;;;;;;;20.50;71.80;;;;;;5059086;28;1327;-70
2022/10/18 05:57:26;;;;;;;;;;;20.50;71.80;;;;;;5062822;28;1022;-71
2022/10/18 05:59:51;;;;;;;;;;;20.50;71.80;;;;;;5057690;28;936;-69
2022/10/18 06:02:17;;;;;;;;;;;20.50;71.80;;;;;;5057491;28;1033;-70
2022/10/18 06:04:42;;;;;;;;;;;20.50;71.80;;;;;;5056172;28;1891;-71
2022/10/18 06:07:11;;;;;;;;;;;20.40;71.80;;;;;;5057981;28;1298;-71
2022/10/18 06:09:36;;;;;;;;;;;20.50;71.80;;;;;;5060008;28;981;-71
2022/10/18 06:12:02;;;;;;;;;;;20.50;71.90;;;;;;5057731;28;888;-70
2022/10/18 06:14:27;;;;;;;;;;;20.50;71.80;;;;;;5055571;28;879;-70
2022/10/18 06:16:55;;;;;;;;;;;20.40;71.80;;;;;;5062161;28;1251;-70
2022/10/18 06:19:20;;;;;;;;;;;20.50;71.90;;;;;;5060110;28;855;-70
2022/10/18 06:21:46;;;;;;;;;;;20.50;71.90;;;;;;5059946;28;1784;-70
2022/10/18 06:24:11;;;;;;;;;;;20.40;71.80;;;;;;5058875;28;1894;-70
2022/10/18 06:26:37;;;;;;;;;;;20.40;71.80;;;;;;5051452;28;5815;-72
2022/10/18 06:29:02;;;;;;;;;;;20.40;71.90;;;;;;5049172;28;4050;-72
2022/10/18 06:31:28;;;;;;;;;;;20.50;71.90;;;;;;5059712;28;878;-72
2022/10/18 06:33:54;;;;;;;;;;;20.50;71.90;;;;;;5058277;28;808;-72
2022/10/18 06:36:22;;;;;;;;;;;20.50;71.90;;;;;;5055942;28;1287;-70
2022/10/18 06:38:48;;;;;;;;;;;20.50;71.80;;;;;;5055711;28;914;-70
2022/10/18 06:41:13;;;;;;;;;;;20.40;71.80;;;;;;5058559;28;906;-71
2022/10/18 06:43:39;;;;;;;;;;;20.50;71.90;;;;;;5056148;28;1897;-71
2022/10/18 06:46:06;;;;;;;;;;;20.50;71.80;;;;;;5054476;28;1263;-71
2022/10/18 06:48:32;;;;;;;;;;;20.50;72.60;;;;;;5059339;28;870;-69
2022/10/18 06:50:58;;;;;;;;;;;20.40;71.90;;;;;;5060065;28;802;-70
2022/10/18 06:53:27;;;;;;;;;;;20.50;71.90;;;;;;5057537;28;818;-70
2022/10/18 06:55:57;;;;;;;;;;;20.50;71.90;;;;;;5061387;28;1330;-70
2022/10/18 06:58:22;;;;;;;;;;;20.50;71.90;;;;;;5055713;28;839;-69
2022/10/18 07:00:48;;;;;;;;;;;20.50;71.90;;;;;;5056168;28;859;-69
2022/10/18 07:03:13;;;;;;;;;;;20.50;71.80;;;;;;5059866;28;1902;-68
2022/10/18 07:05:39;;;;;;;;;;;20.50;71.80;;;;;;5059211;28;1265;-69
2022/10/18 07:08:04;;;;;;;;;;;20.50;71.80;;;;;;5060118;28;835;-69
2022/10/18 07:10:30;;;;;;;;;;;20.50;71.80;;;;;;5061406;28;860;-68
2022/10/18 07:12:55;;;;;;;;;;;20.50;71.80;;;;;;5056572;28;930;-68
2022/10/18 07:15:22;;;;;;;;;;;20.50;71.80;;;;;;5056845;28;1239;-69
2022/10/18 07:17:48;;;;;;;;;;;20.50;71.80;;;;;;5058324;28;1327;-69
2022/10/18 07:20:13;;;;;;;;;;;20.50;71.70;;;;;;5059186;28;811;-69
2022/10/18 07:22:39;;;;;;;;;;;20.50;71.60;;;;;;5059329;28;1961;-70
2022/10/18 07:25:04;;;;;;;;;;;20.50;71.60;;;;;;5058980;28;1287;-70
2022/10/18 07:27:30;;;;;;;;;;;20.50;71.60;;;;;;5058933;28;870;-70
2022/10/18 07:29:55;;;;;;;;;;;20.50;71.60;;;;;;5058044;28;875;-70
2022/10/18 07:32:21;;;;;;;;;;;20.60;71.60;;;;;;5058432;28;1468;-71
2022/10/18 07:34:46;;;;;;;;;;;20.60;71.60;;;;;;5057956;28;828;-70
2022/10/18 07:37:12;;;;;;;;;;;20.60;71.50;;;;;;5059106;28;1294;-71
2022/10/18 07:39:37;;;;;;;;;;;20.60;71.50;;;;;;5056837;28;822;-71
2022/10/18 07:42:02;;;;;;;;;;;20.60;71.50;;;;;;5058405;28;830;-70
2022/10/18 07:44:28;;;;;;;;;;;20.60;71.40;;;;;;5055014;28;1906;-70
2022/10/18 07:46:53;;;;;;;;;;;20.60;71.40;;;;;;5055084;28;1292;-71
2022/10/18 07:49:19;;;;;;;;;;;20.60;71.40;;;;;;5055590;28;847;-69
2022/10/18 07:51:44;;;;;;;;;;;20.60;71.40;;;;;;5056620;28;899;-71
2022/10/18 07:54:10;;;;;;;;;;;20.60;71.40;;;;;;5057703;28;1596;-68
2022/10/18 07:56:35;;;;;;;;;;;20.60;71.30;;;;;;5061220;28;1340;-67
2022/10/18 07:59:00;;;;;;;;;;;20.70;71.40;;;;;;5061565;28;1034;-68
2022/10/18 08:01:26;;;;;;;;;;;20.60;71.30;;;;;;5063100;28;810;-70
2022/10/18 08:03:52;;;;;;;;;;;20.60;71.20;;;;;;5060695;28;1926;-70
2022/10/18 08:06:18;;;;;;;;;;;20.60;71.20;;;;;;5059228;28;1213;-70
2022/10/18 08:08:43;;;;;;;;;;;20.60;71.20;;;;;;5065945;28;903;-70
2022/10/18 08:11:10;;;;;;;;;;;20.70;71.30;;;;;;5059603;28;846;-69
2022/10/18 08:13:35;;;;;;;;;;;20.70;71.30;;;;;;5060083;28;812;-71
2022/10/18 08:16:01;;;;;;;;;;;20.70;71.30;;;;;;5062333;28;1315;-70
2022/10/18 08:18:27;;;;;;;;;;;20.70;71.20;;;;;;5065490;28;1306;-69
2022/10/18 08:20:52;;;;;;;;;;;20.70;71.20;;;;;;5063475;28;960;-70
2022/10/18 08:23:18;;;;;;;;;;;20.70;71.20;;;;;;5061821;28;1957;-69
2022/10/18 08:25:43;;;;;;;;;;;20.70;71.20;;;;;;5061460;28;1311;-71
2022/10/18 08:28:09;;;;;;;;;;;20.70;71.20;;;;;;5059876;28;799;-70
2022/10/18 08:30:34;;;;;;;;;;;20.70;71.20;;;;;;5062413;28;899;-70
2022/10/18 08:33:00;;;;;;;;;;;20.70;71.20;;;;;;5063175;28;1372;-70
2022/10/18 08:35:26;;;;;;;;;;;20.70;71.20;;;;;;5062571;28;1379;-69
2022/10/18 08:37:51;;;;;;;;;;;20.70;71.20;;;;;;5057037;28;876;-69
2022/10/18 08:40:17;;;;;;;;;;;20.70;71.20;;;;;;5061694;28;870;-69
2022/10/18 08:42:51;;;;;;;;;;;20.70;71.20;;;;;;5056949;28;1898;-69
2022/10/18 08:45:17;;;;;;;;;;;20.70;71.20;;;;;;5060476;28;1275;-70
2022/10/18 08:47:42;;;;;;;;;;;20.70;71.20;;;;;;5061575;28;1014;-69
2022/10/18 08:50:12;;;;;;;;;;;20.70;71.20;;;;;;5060319;28;943;-69
2022/10/18 08:52:43;;;;;;;;;;;20.70;71.20;;;;;;5058998;28;1092;-70
2022/10/18 08:55:11;;;;;;;;;;;20.70;71.20;;;;;;5064273;28;1357;-71
2022/10/18 08:57:36;;;;;;;;;;;20.70;71.20;;;;;;5059070;28;2225;-70
2022/10/18 09:00:13;;;;;;;;;;;20.60;71.10;;;;;;5057932;28;1955;-70
2022/10/18 09:02:57;;;;;;;;;;;20.70;71.60;;;;;;5061510;28;1945;-70
2022/10/18 09:05:39;;;;;;;;;;;20.70;71.20;;;;;;5058847;28;1249;-70
2022/10/18 09:08:10;;;;;;;;;;;20.70;71.20;;;;;;5059895;28;1102;-70
2022/10/18 09:10:54;;;;;;;;;;;20.70;71.20;;;;;;5062217;28;945;-70
2022/10/18 09:13:31;;;;;;;;;;;20.70;71.30;;;;;;5062137;28;911;-71
2022/10/18 09:15:57;;;;;;;;;;;20.70;71.30;;;;;;5059827;28;1289;-71
2022/10/18 09:18:23;;;;;;;;;;;20.70;71.30;;;;;;5060107;28;1311;-71
2022/10/18 09:20:58;;;;;;;;;;;20.70;71.30;;;;;;5059901;28;978;-70
2022/10/18 09:23:39;;;;;;;;;;;20.70;71.30;;;;;;5060354;28;1957;-70
2022/10/18 09:26:15;;;;;;;;;;;20.70;71.30;;;;;;5060979;28;1310;-70
2022/10/18 09:28:47;;;;;;;;;;;20.70;71.20;;;;;;5058243;28;845;-71
2022/10/18 09:31:27;;;;;;;;;;;20.60;71.20;;;;;;5061150;28;1487;-70
2022/10/18 09:34:12;;;;;;;;;;;20.70;71.30;;;;;;5056353;28;1017;-70
2022/10/18 09:36:37;;;;;;;;;;;20.70;71.30;;;;;;5058910;28;1357;-70
2022/10/18 09:39:04;;;;;;;;;;;20.60;71.30;;;;;;5061007;28;835;-72
2022/10/18 09:41:38;;;;;;;;;;;20.60;71.20;;;;;;5062670;28;1519;-72
2022/10/18 09:44:14;;;;;;;;;;;20.60;71.30;;;;;;5062201;28;1902;-71
2022/10/18 09:46:41;;;;;;;;;;;20.60;71.30;;;;;;5056954;28;1339;-71
2022/10/18 09:49:10;;;;;;;;;;;20.60;71.30;;;;;;5060003;28;1029;-72
2022/10/18 09:51:36;;;;;;;;;;;20.70;71.30;;;;;;5060199;28;1041;-71
2022/10/18 09:54:19;;;;;;;;;;;20.70;71.40;;;;;;5059557;28;823;-70
2022/10/18 09:56:49;;;;;;;;;;;20.60;71.30;;;;;;5058945;28;1967;-71
2022/10/18 09:59:30;;;;;;;;;;;20.70;71.40;;;;;;5060338;28;1285;-70
2022/10/18 10:01:55;;;;;;;;;;;20.60;71.40;;;;;;5057959;28;1440;-70
2022/10/18 10:04:21;;;;;;;;;;;20.60;71.40;;;;;;5058283;28;1898;-70
2022/10/18 10:06:50;;;;;;;;;;;20.70;71.40;;;;;;5063419;28;1355;-69
2022/10/18 10:09:16;;;;;;;;;;;20.60;71.40;;;;;;5067486;28;1286;-70
2022/10/18 10:11:45;;;;;;;;;;;20.60;71.40;;;;;;5050292;28;1551;-70
2022/10/18 10:14:14;;;;;;;;;;;20.60;71.40;;;;;;5058364;28;1372;-69
2022/10/18 10:16:44;;;;;;;;;;;20.60;71.40;;;;;;5058167;28;1343;-69
2022/10/18 10:19:48;;;;;;;;;;;20.60;71.40;;;;;;5056170;28;1395;-71
2022/10/18 10:22:13;;;;;;;;;;;20.60;71.40;;;;;;4984578;28;1301;-71
2022/10/18 10:24:42;;;;;;;;;;;20.60;71.40;;;;;;4972948;28;2000;-70
2022/10/18 10:27:13;;;;;;;;;;;20.60;71.40;;;;;;5012266;28;1669;-70
2022/10/18 10:29:39;;;;;;;;;;;20.60;71.40;;;;;;5059609;28;1316;-70
2022/10/18 10:32:04;;;;;;;;;;;20.60;71.50;;;;;;5063303;28;1505;-71
2022/10/18 10:34:30;;;;;;;;;;;20.60;71.40;;;;;;5059404;28;947;-71
2022/10/18 10:36:56;;;;;;;;;;;20.60;71.50;;;;;;5057847;28;1342;-71
2022/10/18 10:39:22;;;;;;;;;;;20.60;71.50;;;;;;5061373;28;942;-71
2022/10/18 10:41:51;;;;;;;;;;;20.60;71.50;;;;;;5057946;28;923;-71
2022/10/18 10:44:18;;;;;;;;;;;20.60;71.50;;;;;;5057593;28;1910;-71
2022/10/18 10:46:43;;;;;;;;;;;20.60;71.50;;;;;;5058510;28;1392;-71
2022/10/18 10:49:15;;;;;;;;;;;20.60;71.50;;;;;;5056441;28;855;-71
2022/10/18 10:51:41;;;;;;;;;;;20.60;71.50;;;;;;5058033;28;959;-71
2022/10/18 10:54:12;;;;;;;;;;;20.60;71.50;;;;;;5061737;28;854;-71
2022/10/18 10:56:58;;;;;;;;;;;20.60;71.50;;;;;;5056932;28;1362;-71
2022/10/18 10:59:25;;;;;;;;;;;20.60;71.50;;;;;;5049357;28;1205;-71
2022/10/18 11:02:10;;;;;;;;;;;20.60;71.50;;;;;;5054532;28;923;-70
2022/10/18 11:04:37;;;;;;;;;;;20.60;71.50;;;;;;5055290;28;1930;-71
2022/10/18 11:07:18;;;;;;;;;;;20.60;71.50;;;;;;5058100;28;1353;-71
2022/10/18 11:09:44;;;;;;;;;;;20.60;71.50;;;;;;5056973;28;1184;-70
2022/10/18 11:12:15;;;;;;;;;;;20.60;71.50;;;;;;5058622;28;882;-71
2022/10/18 11:14:42;;;;;;;;;;;20.60;71.50;;;;;;5057960;28;846;-70
2022/10/18 11:17:19;;;;;;;;;;;20.60;71.60;;;;;;5059424;28;1273;-70
2022/10/18 11:19:45;;;;;;;;;;;20.60;71.60;;;;;;5055017;28;867;-71
2022/10/18 11:22:12;;;;;;;;;;;20.60;71.60;;;;;;5057043;28;903;-71
2022/10/18 11:24:38;;;;;;;;;;;20.60;71.60;;;;;;5057441;28;1967;-70
2022/10/18 11:27:13;;;;;;;;;;;20.60;71.60;;;;;;5059302;28;1365;-71
2022/10/18 11:29:45;;;;;;;;;;;20.60;71.60;;;;;;5062196;28;957;-70
2022/10/18 11:32:11;;;;;;;;;;;20.60;71.60;;;;;;5064211;28;1495;-70
2022/10/18 11:34:58;;;;;;;;;;;20.60;71.70;;;;;;5065577;28;950;-71
2022/10/18 11:37:33;;;;;;;;;;;20.60;71.70;;;;;;5066847;28;903;-70
2022/10/18 11:39:58;;;;;;;;;;;20.60;71.70;;;;;;5065473;28;878;-70
2022/10/18 11:42:32;;;;;;;;;;;20.60;71.60;;;;;;5064908;28;890;-70
2022/10/18 11:45:17;;;;;;;;;;;20.60;71.60;;;;;;5064642;28;1894;-70
2022/10/18 11:47:51;;;;;;;;;;;20.60;71.60;;;;;;5065185;28;774;-70
2022/10/18 11:50:38;;;;;;;;;;;20.60;71.70;;;;;;5061121;28;1030;-70
2022/10/18 11:53:22;;;;;;;;;;;20.60;71.70;;;;;;5064731;28;922;-70
2022/10/18 11:55:47;;;;;;;;;;;20.60;71.70;;;;;;5064349;28;1337;-71
2022/10/18 11:58:22;;;;;;;;;;;20.60;71.70;;;;;;5065479;28;974;-70
2022/10/18 12:01:06;;;;;;;;;;;20.60;71.70;;;;;;5062119;28;1277;-71
2022/10/18 12:03:40;;;;;;;;;;;20.60;71.70;;;;;;5061877;28;1902;-70
2022/10/18 12:06:10;;;;;;;;;;;20.60;71.70;;;;;;5067496;28;1925;-70
2022/10/18 12:08:41;;;;;;;;;;;20.60;71.70;;;;;;5061446;28;1413;-70
2022/10/18 12:11:42;;;;;;;;;;;20.60;71.70;;;;;;5059513;28;2170;-70
2022/10/18 12:14:13;;;;;;;;;;;20.50;71.60;;;;;;4976759;28;2195;-70
2022/10/18 12:16:38;;;;;;;;;;;20.60;71.70;;;;;;5065871;28;1266;-70
2022/10/18 12:19:05;;;;;;;;;;;20.60;71.70;;;;;;5062993;28;1230;-71
2022/10/18 12:21:31;;;;;;;;;;;20.50;71.70;;;;;;5064663;28;1388;-71
2022/10/18 12:23:56;;;;;;;;;;;20.60;71.70;;;;;;5063172;28;2024;-71
2022/10/18 12:26:22;;;;;;;;;;;20.60;71.80;;;;;;5065466;28;1260;-71
2022/10/18 12:29:06;;;;;;;;;;;20.50;71.70;;;;;;5064854;28;959;-71
2022/10/18 12:31:42;;;;;;;;;;;20.50;71.70;;;;;;5063407;28;1401;-71
2022/10/18 12:34:10;;;;;;;;;;;20.60;71.80;;;;;;5061092;28;903;-71
2022/10/18 12:36:36;;;;;;;;;;;20.50;71.70;;;;;;5061051;28;1319;-71
2022/10/18 12:39:02;;;;;;;;;;;20.60;71.80;;;;;;5063404;28;903;-71
2022/10/18 12:41:29;;;;;;;;;;;20.50;71.70;;;;;;5065859;28;945;-71
2022/10/18 12:43:57;;;;;;;;;;;20.50;71.70;;;;;;5060087;28;1905;-71
2022/10/18 12:46:22;;;;;;;;;;;20.50;71.70;;;;;;5060532;28;1305;-71
2022/10/18 12:48:50;;;;;;;;;;;20.60;71.80;;;;;;5060186;28;910;-71
2022/10/18 12:51:21;;;;;;;;;;;20.50;71.80;;;;;;5056202;28;1053;-71
2022/10/18 12:53:59;;;;;;;;;;;20.50;71.80;;;;;;5056849;28;814;-70
2022/10/18 12:56:27;;;;;;;;;;;20.50;71.80;;;;;;5060518;28;1373;-71
2022/10/18 12:59:11;;;;;;;;;;;20.50;71.80;;;;;;5057612;28;911;-70
2022/10/18 13:01:51;;;;;;;;;;;20.50;71.80;;;;;;5063260;28;988;-69
2022/10/18 13:04:26;;;;;;;;;;;20.50;71.80;;;;;;5061445;28;1906;-69
2022/10/18 13:06:58;;;;;;;;;;;20.50;71.80;;;;;;5059108;28;1274;-70
2022/10/18 13:09:45;;;;;;;;;;;20.50;71.80;;;;;;5058224;28;839;-70
2022/10/18 13:12:11;;;;;;;;;;;20.50;71.80;;;;;;5060797;28;884;-70
2022/10/18 13:14:55;;;;;;;;;;;20.50;71.80;;;;;;5059453;28;851;-71
2022/10/18 13:17:39;;;;;;;;;;;20.50;71.80;;;;;;5063845;28;1252;-70
2022/10/18 13:20:25;;;;;;;;;;;20.50;71.80;;;;;;5058202;28;986;-71
2022/10/18 13:22:53;;;;;;;;;;;20.50;71.80;;;;;;5058946;28;1961;-71
2022/10/18 13:25:21;;;;;;;;;;;20.50;71.80;;;;;;5050330;28;4414;-70
2022/10/18 13:27:47;;;;;;;;;;;20.50;71.80;;;;;;5059632;28;1204;-71
2022/10/18 13:30:13;;;;;;;;;;;20.50;71.80;;;;;;5057452;28;894;-71
2022/10/18 13:32:59;;;;;;;;;;;20.50;72.60;;;;;;5061299;28;1525;-70
2022/10/18 13:35:39;;;;;;;;;;;20.50;71.90;;;;;;5020139;28;1746;-73
2022/10/18 13:38:04;;;;;;;;;;;20.50;71.90;;;;;;5059369;28;1171;-71
2022/10/18 13:40:30;;;;;;;;;;;20.50;71.80;;;;;;5058315;28;859;-71
2022/10/18 13:42:55;;;;;;;;;;;20.50;71.90;;;;;;5061377;28;1934;-70
2022/10/18 13:45:34;;;;;;;;;;;20.50;71.90;;;;;;5062104;28;1275;-69
2022/10/18 13:48:18;;;;;;;;;;;20.50;71.90;;;;;;5063043;28;824;-69
2022/10/18 13:50:44;;;;;;;;;;;20.50;71.90;;;;;;5062680;28;958;-69
2022/10/18 13:53:28;;;;;;;;;;;20.50;72.00;;;;;;5058403;28;1415;-69
2022/10/18 13:56:00;;;;;;;;;;;20.50;71.90;;;;;;5059820;28;1439;-69
2022/10/18 13:58:44;;;;;;;;;;;20.50;72.00;;;;;;5057497;28;919;-70
2022/10/18 14:01:27;;;;;;;;;;;20.50;71.90;;;;;;5063530;28;1643;-70
2022/10/18 14:04:11;;;;;;;;;;;20.50;71.90;;;;;;5041670;28;1968;-70
2022/10/18 14:06:37;;;;;;;;;;;20.50;72.00;;;;;;5057146;28;1252;-69
2022/10/18 14:09:02;;;;;;;;;;;20.50;72.00;;;;;;5060578;28;867;-69
2022/10/18 14:11:28;;;;;;;;;;;20.50;72.00;;;;;;5060896;28;815;-69
2022/10/18 14:13:54;;;;;;;;;;;20.50;72.00;;;;;;5059854;28;861;-69
2022/10/18 14:16:25;;;;;;;;;;;20.50;72.00;;;;;;5058500;28;1277;-69
2022/10/18 14:18:51;;;;;;;;;;;20.50;72.00;;;;;;5059486;28;1366;-69
2022/10/18 14:21:18;;;;;;;;;;;20.50;72.00;;;;;;5060664;28;858;-69
2022/10/18 14:23:43;;;;;;;;;;;20.50;72.00;;;;;;5057311;28;1898;-69
2022/10/18 14:26:16;;;;;;;;;;;20.50;72.00;;;;;;5059088;28;1287;-71
2022/10/18 14:28:41;;;;;;;;;;;20.50;72.00;;;;;;5059452;28;851;-70
2022/10/18 14:31:11;;;;;;;;;;;20.50;72.00;;;;;;5057384;28;836;-70
2022/10/18 14:33:44;;;;;;;;;;;20.50;72.00;;;;;;5055504;28;1026;-70
2022/10/18 14:36:19;;;;;;;;;;;20.50;72.00;;;;;;5065290;28;1290;-70
2022/10/18 14:38:48;;;;;;;;;;;20.50;72.00;;;;;;5056475;28;839;-70
2022/10/18 14:41:14;;;;;;;;;;;20.50;72.00;;;;;;5059666;28;850;-70